Time;durP1;ratioP1;P1;durP2;ratioP2;P2;SDS_P1;SDS_P2;PMS_P1;PMS_P2;Temp;Humidity;BMP_temperature;BMP_pressure;BME280_temperature;BME280_humidity;BME280_pressure;Samples;Min_cycle;Max_cycle;Signal;HPM_P1;HPM_P2
2021/10/21 00:02:20;;;;;;;44.67;19.67;;;;;;;12.87;100.00;98795.38;5022857;28;20026;-67
2021/10/21 00:04:45;;;;;;;49.88;21.38;;;;;;;12.85;100.00;98775.16;5023697;28;20029;-67
2021/10/21 00:07:11;;;;;;;47.03;20.17;;;;;;;12.82;100.00;98768.16;5023776;28;20045;-67
2021/10/21 00:09:36;;;;;;;49.95;20.60;;;;;;;12.82;100.00;98739.00;5023965;28;20031;-67
2021/10/21 00:12:03;;;;;;;48.60;21.40;;;;;;;12.83;100.00;98735.44;5013822;28;20115;-68
2021/10/21 00:14:29;;;;;;;48.60;21.45;;;;;;;12.78;100.00;98728.56;5022081;28;20022;-68
2021/10/21 00:16:55;;;;;;;43.72;19.58;;;;;;;12.77;100.00;98725.06;5025338;28;20029;-68
2021/10/21 00:19:20;;;;;;;40.08;17.48;;;;;;;12.79;100.00;98706.44;5022124;28;20117;-67
2021/10/21 00:21:48;;;;;;;30.20;12.77;;;;;;;12.69;100.00;98703.28;5013507;28;20030;-67
2021/10/21 00:24:14;;;;;;;26.67;9.32;;;;;;;12.74;100.00;98719.84;5013637;28;20495;-68
2021/10/21 00:26:39;;;;;;;27.50;10.10;;;;;;;12.76;100.00;98707.44;5023540;28;20116;-68
2021/10/21 00:29:04;;;;;;;30.05;11.60;;;;;;;12.69;100.00;98709.44;5023710;28;20376;-68
2021/10/21 00:31:30;;;;;;;28.52;10.27;;;;;;;12.77;100.00;98719.75;5013484;28;20034;-67
2021/10/21 00:33:55;;;;;;;28.40;10.43;;;;;;;12.74;100.00;98719.84;5013224;28;20026;-67
2021/10/21 00:36:20;;;;;;;22.40;7.63;;;;;;;12.79;100.00;98666.69;5024939;28;20026;-67
2021/10/21 00:38:46;;;;;;;23.10;7.75;;;;;;;12.70;100.00;98691.75;5022544;28;20067;-68
2021/10/21 00:41:11;;;;;;;24.65;8.38;;;;;;;12.73;100.00;98663.34;5023675;28;20072;-66
2021/10/21 00:43:41;;;;;;;27.23;9.70;;;;;;;12.86;100.00;98692.03;5023731;28;20489;-68
2021/10/21 00:46:08;;;;;;;25.38;8.18;;;;;;;12.96;100.00;98719.03;5023021;28;20033;-68
2021/10/21 00:48:35;;;;;;;21.70;7.00;;;;;;;12.97;100.00;98710.16;5023638;28;20029;-67
2021/10/21 00:51:01;;;;;;;22.27;6.63;;;;;;;13.05;100.00;98713.38;5021669;28;20061;-67
2021/10/21 00:53:29;;;;;;;21.58;6.05;;;;;;;12.89;100.00;98703.38;5024860;28;20048;-66
2021/10/21 00:55:55;;;;;;;22.30;5.80;;;;;;;12.88;100.00;98708.72;5022624;28;20239;-68
2021/10/21 00:58:21;;;;;;;18.92;5.03;;;;;;;12.71;100.00;98710.25;5021255;28;20021;-66
2021/10/21 01:00:48;;;;;;;19.35;4.78;;;;;;;12.41;100.00;98721.97;5024960;28;20157;-68
2021/10/21 01:03:13;;;;;;;20.55;4.20;;;;;;;12.38;100.00;98715.88;5024210;28;20108;-69
2021/10/21 01:05:39;;;;;;;19.17;3.70;;;;;;;12.19;100.00;98747.47;5021476;28;20022;-69
2021/10/21 01:08:04;;;;;;;20.20;3.88;;;;;;;12.14;99.21;98736.19;5012887;28;20030;-69
2021/10/21 01:10:29;;;;;;;15.95;3.35;;;;;;;11.88;100.00;98725.59;5021264;28;20539;-69
2021/10/21 01:12:55;;;;;;;15.40;2.92;;;;;;;11.86;97.09;98694.75;5023395;28;20479;-68
2021/10/21 01:15:28;;;;;;;17.15;3.40;;;;;;;11.81;96.58;98727.59;5021873;28;20398;-68
2021/10/21 01:17:55;;;;;;;20.65;3.47;;;;;;;11.81;94.26;98724.94;5023145;28;20361;-69
2021/10/21 01:20:22;;;;;;;16.05;3.15;;;;;;;11.78;93.04;98749.75;5021996;28;20029;-65
2021/10/21 01:22:48;;;;;;;19.83;3.30;;;;;;;11.73;93.06;98721.72;5024042;28;20079;-69
2021/10/21 01:25:15;;;;;;;17.30;2.85;;;;;;;11.73;90.88;98735.81;5021150;28;20077;-68
2021/10/21 01:27:41;;;;;;;17.55;2.92;;;;;;;11.63;92.25;98716.72;5024145;28;20391;-62
2021/10/21 01:30:07;;;;;;;16.52;2.80;;;;;;;11.62;88.23;98732.63;5021337;28;20053;-68
2021/10/21 01:32:36;;;;;;;13.90;2.53;;;;;;;11.47;87.45;98723.44;5012782;28;20092;-68
2021/10/21 01:35:04;;;;;;;16.98;2.70;;;;;;;11.60;84.51;98721.25;5022954;28;20018;-68
2021/10/21 01:37:31;;;;;;;20.85;3.00;;;;;;;11.56;83.35;98723.13;5022541;28;20060;-68
2021/10/21 01:39:57;;;;;;;17.40;2.70;;;;;;;11.46;84.55;98711.13;5022381;28;20030;-68
2021/10/21 01:42:22;;;;;;;17.00;2.80;;;;;;;11.52;80.69;98714.44;5023099;28;20032;-69
2021/10/21 01:44:48;;;;;;;16.13;2.60;;;;;;;11.49;81.74;98703.97;5012825;28;20358;-69
2021/10/21 01:47:13;;;;;;;16.90;2.60;;;;;;;11.46;81.82;98712.00;5012181;28;20033;-69
2021/10/21 01:49:38;;;;;;;15.05;2.42;;;;;;;11.45;82.28;98688.25;5012814;28;20026;-69
2021/10/21 01:52:04;;;;;;;22.42;2.88;;;;;;;11.45;83.83;98696.19;5012620;28;20038;-68
2021/10/21 01:54:29;;;;;;;17.73;2.60;;;;;;;11.40;84.27;98693.69;5012531;28;20056;-68
2021/10/21 01:56:55;;;;;;;18.25;2.72;;;;;;;11.39;84.74;98684.03;5022563;28;20061;-68
2021/10/21 01:59:20;;;;;;;16.90;2.67;;;;;;;11.50;84.05;98687.19;5022286;28;20052;-67
2021/10/21 02:01:45;;;;;;;19.00;3.33;;;;;;;11.69;82.25;98684.78;5021568;28;20373;-64
2021/10/21 02:04:11;;;;;;;17.98;2.90;;;;;;;11.69;82.94;98695.34;5021102;28;20034;-67
2021/10/21 02:06:36;;;;;;;16.25;2.70;;;;;;;11.65;83.06;98680.50;5023665;28;20033;-68
2021/10/21 02:09:02;;;;;;;21.48;2.80;;;;;;;11.77;81.93;98651.88;5012287;28;20125;-67
2021/10/21 02:11:27;;;;;;;19.50;2.63;;;;;;;11.66;82.15;98676.06;5012492;28;20022;-66
2021/10/21 02:13:52;;;;;;;16.98;2.60;;;;;;;11.67;83.67;98657.47;5012255;28;20086;-67
2021/10/21 02:16:18;;;;;;;17.63;2.70;;;;;;;11.65;82.92;98683.13;5012182;28;20030;-66
2021/10/21 02:18:43;;;;;;;14.20;2.50;;;;;;;11.62;84.00;98650.59;5012207;28;20101;-67
2021/10/21 02:21:08;;;;;;;19.80;3.10;;;;;;;11.59;84.63;98645.44;5022775;28;20029;-67
2021/10/21 02:23:34;;;;;;;18.45;2.80;;;;;;;11.64;84.11;98657.59;5027826;28;20388;-66
2021/10/21 02:25:59;;;;;;;19.02;2.78;;;;;;;11.56;88.48;98650.81;5024208;28;20438;-65
2021/10/21 02:28:24;;;;;;;18.92;2.88;;;;;;;11.25;96.65;98651.88;5026520;28;20690;-67
2021/10/21 02:30:50;;;;;;;18.63;3.00;;;;;;;10.77;100.00;98642.81;5025369;28;20400;-66
2021/10/21 02:33:16;;;;;;;19.17;3.00;;;;;;;10.62;100.00;98660.03;5022602;28;20428;-67
2021/10/21 02:35:43;;;;;;;21.40;3.40;;;;;;;10.41;100.00;98636.00;5025596;28;20017;-66
2021/10/21 02:38:09;;;;;;;19.75;3.42;;;;;;;10.29;100.00;98625.75;5025195;28;20076;-66
2021/10/21 02:40:34;;;;;;;21.48;3.50;;;;;;;10.22;100.00;98618.91;5026463;28;20029;-68
2021/10/21 02:42:59;;;;;;;19.10;3.03;;;;;;;10.20;100.00;98633.94;5023580;28;20053;-68
2021/10/21 02:45:25;;;;;;;19.80;3.60;;;;;;;10.18;100.00;98633.13;5027294;28;20028;-67
2021/10/21 02:47:50;;;;;;;22.45;3.40;;;;;;;10.18;100.00;98617.28;5024070;28;20061;-67
2021/10/21 02:50:15;;;;;;;20.15;3.17;;;;;;;10.18;100.00;98638.41;5025348;28;20030;-65
2021/10/21 02:52:41;;;;;;;25.00;3.60;;;;;;;10.12;100.00;98603.34;5025827;28;20468;-67
2021/10/21 02:55:07;;;;;;;22.48;3.25;;;;;;;10.08;100.00;98614.91;5015148;28;20077;-62
2021/10/21 02:57:33;;;;;;;21.52;3.00;;;;;;;10.13;100.00;98622.69;5023322;28;20088;-61
2021/10/21 02:59:58;;;;;;;23.58;3.58;;;;;;;10.04;100.00;98608.00;5015219;28;20052;-62
2021/10/21 03:02:23;;;;;;;20.27;3.30;;;;;;;10.01;100.00;98620.41;5014961;28;20109;-62
2021/10/21 03:04:49;;;;;;;21.60;3.35;;;;;;;10.20;100.00;98618.97;5025823;28;20030;-62
2021/10/21 03:07:14;;;;;;;19.60;3.38;;;;;;;10.11;100.00;98622.75;5026933;28;20061;-61
2021/10/21 03:09:39;;;;;;;23.35;3.60;;;;;;;10.04;100.00;98615.91;5023746;28;20061;-64
2021/10/21 03:12:05;;;;;;;22.02;3.30;;;;;;;10.01;100.00;98631.84;5025257;28;20061;-62
2021/10/21 03:14:30;;;;;;;23.23;3.40;;;;;;;9.94;100.00;98591.53;5025092;28;20022;-62
2021/10/21 03:16:56;;;;;;;18.92;3.13;;;;;;;9.89;100.00;98600.53;5014984;28;20061;-62
2021/10/21 03:19:21;;;;;;;20.77;3.70;;;;;;;9.85;100.00;98591.81;5014949;28;20018;-63
2021/10/21 03:21:46;;;;;;;22.38;3.70;;;;;;;9.80;100.00;98611.31;5014706;28;20026;-62
2021/10/21 03:24:12;;;;;;;22.52;3.58;;;;;;;9.87;100.00;98604.97;5014557;28;20060;-63
2021/10/21 03:26:37;;;;;;;22.38;3.65;;;;;;;9.81;100.00;98586.69;5014588;28;20038;-62
2021/10/21 03:29:03;;;;;;;23.00;3.83;;;;;;;9.75;100.00;98599.13;5024377;28;20061;-63
2021/10/21 03:31:29;;;;;;;22.17;3.40;;;;;;;9.80;100.00;98596.38;5025247;28;20029;-63
2021/10/21 03:33:56;;;;;;;22.20;3.53;;;;;;;9.77;100.00;98573.56;5013892;28;20492;-62
2021/10/21 03:36:21;;;;;;;22.67;3.80;;;;;;;9.76;100.00;98585.03;5014162;28;20033;-63
2021/10/21 03:38:47;;;;;;;22.73;3.60;;;;;;;9.74;100.00;98581.59;5014284;28;20028;-62
2021/10/21 03:41:12;;;;;;;21.90;3.53;;;;;;;9.76;100.00;98573.63;5014475;28;20030;-62
2021/10/21 03:43:38;;;;;;;21.98;3.78;;;;;;;9.69;100.00;98565.00;5013352;28;20033;-62
2021/10/21 03:46:03;;;;;;;20.63;3.45;;;;;;;9.76;100.00;98574.47;5024218;28;20033;-67
2021/10/21 03:48:29;;;;;;;23.60;3.60;;;;;;;9.68;100.00;98536.88;5024716;28;20030;-68
2021/10/21 03:50:54;;;;;;;24.38;3.80;;;;;;;9.67;100.00;98547.47;5014116;28;20480;-69
2021/10/21 03:53:19;;;;;;;22.88;3.50;;;;;;;9.63;100.00;98546.72;5022367;28;20175;-68
2021/10/21 03:55:44;;;;;;;21.90;4.13;;;;;;;9.72;100.00;98551.72;5012774;28;20025;-69
2021/10/21 03:58:10;;;;;;;19.65;3.38;;;;;;;9.81;100.00;98565.56;5025819;28;20017;-67
2021/10/21 04:00:36;;;;;;;22.02;3.35;;;;;;;9.79;100.00;98546.28;5022744;28;20045;-65
2021/10/21 04:03:01;;;;;;;21.70;3.15;;;;;;;9.81;100.00;98555.88;5022202;28;20033;-68
2021/10/21 04:05:27;;;;;;;19.25;3.10;;;;;;;9.88;100.00;98519.63;5024599;28;20366;-68
2021/10/21 04:07:53;;;;;;;22.05;3.47;;;;;;;9.84;100.00;98560.19;5022524;28;20465;-69
2021/10/21 04:10:18;;;;;;;22.80;3.47;;;;;;;9.85;100.00;98535.56;5023485;28;20032;-68
2021/10/21 04:12:44;;;;;;;20.98;3.40;;;;;;;9.76;100.00;98524.34;5024540;28;20029;-68
2021/10/21 04:15:10;;;;;;;22.23;3.53;;;;;;;9.75;100.00;98525.25;5013886;28;20026;-68
2021/10/21 04:17:36;;;;;;;20.20;3.33;;;;;;;9.65;100.00;98534.34;5013902;28;20026;-68
2021/10/21 04:20:01;;;;;;;21.60;3.45;;;;;;;9.70;100.00;98516.63;5013659;28;20025;-66
2021/10/21 04:22:26;;;;;;;23.35;3.60;;;;;;;9.64;100.00;98511.53;5024665;28;20045;-68
2021/10/21 04:24:52;;;;;;;17.52;3.05;;;;;;;9.71;100.00;98510.44;5023131;28;20491;-69
2021/10/21 04:27:18;;;;;;;18.40;3.13;;;;;;;9.60;100.00;98494.06;5013583;28;20473;-62
2021/10/21 04:29:43;;;;;;;15.70;3.00;;;;;;;9.65;100.00;98500.03;5013652;28;20101;-63
2021/10/21 04:32:09;;;;;;;20.88;2.92;;;;;;;9.63;100.00;98499.22;5011938;28;20453;-62
2021/10/21 04:34:35;;;;;;;18.60;3.38;;;;;;;9.70;100.00;98500.78;5021733;28;20022;-63
2021/10/21 04:37:00;;;;;;;18.67;3.20;;;;;;;9.82;100.00;98483.72;5024376;28;20384;-62
2021/10/21 04:39:26;;;;;;;17.00;3.10;;;;;;;9.74;100.00;98499.78;5022327;28;20104;-63
2021/10/21 04:41:51;;;;;;;17.75;3.08;;;;;;;9.77;100.00;98514.63;5023408;28;20029;-63
2021/10/21 04:44:16;;;;;;;15.77;3.10;;;;;;;9.76;100.00;98524.34;5023858;28;20037;-65
2021/10/21 04:46:42;;;;;;;20.20;3.40;;;;;;;9.83;100.00;98518.88;5021929;28;20079;-62
2021/10/21 04:49:07;;;;;;;20.33;4.00;;;;;;;9.85;100.00;98525.84;5024892;28;20025;-62
2021/10/21 04:51:32;;;;;;;23.67;4.40;;;;;;;9.87;100.00;98554.81;5021715;28;20037;-63
2021/10/21 04:53:58;;;;;;;21.48;5.25;;;;;;;9.76;100.00;98526.13;5013249;28;20022;-63
2021/10/21 04:56:23;;;;;;;22.63;6.07;;;;;;;9.63;100.00;98544.06;5024458;28;20034;-63
2021/10/21 04:58:48;;;;;;;27.70;7.10;;;;;;;9.55;100.00;98552.22;5023186;28;20045;-63
2021/10/21 05:01:14;;;;;;;25.17;7.60;;;;;;;9.49;100.00;98569.97;5023301;28;20025;-64
2021/10/21 05:03:39;;;;;;;27.70;8.55;;;;;;;9.59;100.00;98574.09;5017102;28;20057;-63
2021/10/21 05:06:04;;;;;;;28.80;9.13;;;;;;;9.57;100.00;98599.66;5021998;28;20045;-63
2021/10/21 05:08:29;;;;;;;27.73;9.70;;;;;;;9.59;100.00;98640.88;5024729;28;20026;-63
2021/10/21 05:10:55;;;;;;;28.83;9.10;;;;;;;9.66;100.00;98638.09;5012659;28;20385;-63
2021/10/21 05:13:20;;;;;;;26.40;9.23;;;;;;;9.75;100.00;98667.72;5012982;28;20084;-62
2021/10/21 05:15:45;;;;;;;23.35;7.63;;;;;;;9.85;100.00;98709.72;5022215;28;20032;-64
2021/10/21 05:18:11;;;;;;;29.92;9.70;;;;;;;9.84;100.00;98753.69;5022751;28;20037;-63
2021/10/21 05:20:38;;;;;;;24.45;7.45;;;;;;;9.82;100.00;98778.41;5021767;28;20026;-63
2021/10/21 05:23:03;;;;;;;21.63;4.32;;;;;;;9.75;100.00;98806.72;5023913;28;20055;-63
2021/10/21 05:25:29;;;;;;;12.93;3.00;;;;;;;9.68;100.00;98813.88;5021174;28;20037;-64
2021/10/21 05:27:54;;;;;;;16.75;3.00;;;;;;;9.49;100.00;98823.16;5016996;28;20121;-63
2021/10/21 05:30:20;;;;;;;10.50;2.25;;;;;;;9.47;100.00;98899.69;5023743;28;20018;-63
2021/10/21 05:32:46;;;;;;;12.45;2.22;;;;;;;9.32;100.00;98953.63;5024785;28;20026;-64
2021/10/21 05:35:12;;;;;;;12.55;2.42;;;;;;;9.08;100.00;98992.75;5018742;28;20455;-65
2021/10/21 05:37:38;;;;;;;14.02;2.00;;;;;;;9.24;100.00;98998.59;5020635;28;20064;-65
2021/10/21 05:40:05;;;;;;;16.50;2.40;;;;;;;9.08;100.00;99058.63;5018053;28;20054;-67
2021/10/21 05:42:30;;;;;;;17.13;2.30;;;;;;;9.11;100.00;99049.81;5023935;28;20423;-66
2021/10/21 05:44:55;;;;;;;20.13;2.50;;;;;;;9.10;100.00;99105.19;5018356;28;20026;-66
2021/10/21 05:47:21;;;;;;;18.67;2.40;;;;;;;9.10;100.00;99118.38;5022594;28;20025;-66
2021/10/21 05:49:46;;;;;;;20.33;2.83;;;;;;;8.96;100.00;99143.22;5019848;28;20038;-65
2021/10/21 05:52:12;;;;;;;21.77;3.05;;;;;;;8.86;100.00;99200.44;5019902;28;20513;-65
2021/10/21 05:54:37;;;;;;;22.23;3.10;;;;;;;8.97;100.00;99180.97;5022295;28;20087;-65
2021/10/21 05:57:02;;;;;;;20.90;2.90;;;;;;;8.94;100.00;99242.53;5023314;28;20030;-65
2021/10/21 05:59:28;;;;;;;28.92;3.88;;;;;;;8.82;100.00;99235.63;5023041;28;20057;-64
2021/10/21 06:01:54;;;;;;;24.15;3.42;;;;;;;8.87;100.00;99277.75;5022959;28;20042;-66
2021/10/21 06:04:20;;;;;;;27.92;4.10;;;;;;;8.78;100.00;99299.84;5025895;28;20473;-66
2021/10/21 06:06:45;;;;;;;29.95;3.95;;;;;;;8.71;100.00;99304.28;5025033;28;20067;-66
2021/10/21 06:09:10;;;;;;;27.98;4.05;;;;;;;8.78;100.00;99326.19;5020676;28;20033;-65
2021/10/21 06:11:37;;;;;;;23.63;3.55;;;;;;;8.80;100.00;99355.16;5023535;28;20372;-65
2021/10/21 06:14:07;;;;;;;31.10;4.75;;;;;;;8.70;100.00;99368.41;5022916;28;20133;-68
2021/10/21 06:16:34;;;;;;;27.42;4.38;;;;;;;8.69;100.00;99387.75;5026525;28;20026;-65
2021/10/21 06:19:00;;;;;;;31.30;5.32;;;;;;;8.62;100.00;99404.53;5028029;28;20044;-67
2021/10/21 06:21:28;;;;;;;33.75;5.13;;;;;;;8.68;100.00;99409.72;5026582;28;20062;-66
2021/10/21 06:23:53;;;;;;;30.25;4.95;;;;;;;8.73;100.00;99412.28;5022280;28;20029;-67
2021/10/21 06:26:19;;;;;;;30.30;5.35;;;;;;;8.75;100.00;99431.59;5024326;28;20088;-66
2021/10/21 06:28:47;;;;;;;31.55;5.20;;;;;;;8.61;100.00;99438.78;5020978;28;20033;-66
2021/10/21 06:31:13;;;;;;;30.38;5.35;;;;;;;8.62;100.00;99445.78;5023188;28;20022;-66
2021/10/21 06:33:40;;;;;;;27.70;4.57;;;;;;;8.62;100.00;99462.47;5022517;28;20104;-65
2021/10/21 06:36:05;;;;;;;29.67;4.97;;;;;;;8.47;100.00;99476.63;5024301;28;20033;-64
2021/10/21 06:38:31;;;;;;;32.42;5.35;;;;;;;8.52;100.00;99476.63;5024937;28;20075;-63
2021/10/21 06:40:56;;;;;;;28.27;5.25;;;;;;;8.46;100.00;99503.88;5029426;28;20504;-63
2021/10/21 06:43:21;;;;;;;30.45;4.82;;;;;;;8.55;100.00;99527.50;5020046;28;20026;-65
2021/10/21 06:45:47;;;;;;;31.55;5.70;;;;;;;8.64;100.00;99544.97;5022791;28;20041;-67
2021/10/21 06:48:12;;;;;;;29.58;4.57;;;;;;;8.53;100.00;99560.91;5018276;28;20037;-66
2021/10/21 06:50:37;;;;;;;22.42;3.70;;;;;;;8.46;100.00;99574.09;5022853;28;20038;-64
2021/10/21 06:53:03;;;;;;;21.60;3.92;;;;;;;8.40;100.00;99555.69;5022126;28;20407;-65
2021/10/21 06:55:28;;;;;;;24.55;4.30;;;;;;;8.33;100.00;99587.31;5022640;28;20053;-64
2021/10/21 06:57:58;;;;;;;24.45;4.00;;;;;;;8.26;100.00;99617.22;5021249;28;20904;-64
2021/10/21 07:00:25;;;;;;;27.55;4.60;;;;;;;8.22;100.00;99631.28;5025177;28;20049;-64
2021/10/21 07:02:51;;;;;;;24.73;4.40;;;;;;;8.19;100.00;99636.56;5019010;28;20030;-64
2021/10/21 07:05:17;;;;;;;28.63;5.15;;;;;;;8.17;100.00;99662.03;5021100;28;20021;-66
2021/10/21 07:07:43;;;;;;;28.27;5.30;;;;;;;8.21;100.00;99674.28;5020025;28;20037;-64
2021/10/21 07:10:09;;;;;;;29.88;5.53;;;;;;;8.24;100.00;99682.16;5020669;28;20030;-63
2021/10/21 07:12:36;;;;;;;29.00;5.50;;;;;;;8.21;100.00;99700.59;5022855;28;20034;-64
2021/10/21 07:15:02;;;;;;;32.97;5.68;;;;;;;8.29;100.00;99706.72;5021406;28;20022;-64
2021/10/21 07:17:28;;;;;;;31.65;5.82;;;;;;;8.27;100.00;99707.59;5019493;28;20034;-64
2021/10/21 07:19:53;;;;;;;33.67;5.70;;;;;;;8.29;100.00;99726.91;5023703;28;20041;-65
2021/10/21 07:22:19;;;;;;;28.08;5.43;;;;;;;8.45;100.00;99727.75;5019723;28;20060;-64
2021/10/21 07:24:44;;;;;;;30.17;6.35;;;;;;;8.47;100.00;99741.78;5023024;28;20025;-65
2021/10/21 07:27:10;;;;;;;29.63;5.15;;;;;;;8.57;100.00;99747.91;5021931;28;20025;-65
2021/10/21 07:29:36;;;;;;;28.50;4.60;;;;;;;8.63;100.00;99764.53;5019482;28;20117;-63
2021/10/21 07:32:02;;;;;;;32.72;5.38;;;;;;;8.71;100.00;99752.19;5023734;28;20079;-64
2021/10/21 07:34:28;;;;;;;28.05;5.07;;;;;;;8.90;96.25;99783.72;5019775;28;20033;-64
2021/10/21 07:36:54;;;;;;;28.52;4.57;;;;;;;8.86;97.87;99780.22;5026758;28;20045;-66
2021/10/21 07:39:22;;;;;;;30.25;5.10;;;;;;;8.86;96.47;99803.06;5028681;28;20048;-65
2021/10/21 07:41:48;;;;;;;27.73;5.30;;;;;;;8.92;96.99;99810.06;5024173;28;20018;-65
2021/10/21 07:44:14;;;;;;;38.47;5.30;;;;;;;8.93;98.35;99820.63;5021936;28;20045;-63
2021/10/21 07:46:41;;;;;;;32.95;5.00;;;;;;;9.07;93.75;99839.88;5018883;28;20072;-62
2021/10/21 07:49:07;;;;;;;30.23;4.80;;;;;;;9.19;95.27;99851.25;5022231;28;20121;-63
2021/10/21 07:51:34;;;;;;;30.02;4.72;;;;;;;9.22;94.22;99853.84;5019772;28;20101;-63
2021/10/21 07:54:00;;;;;;;32.15;5.07;;;;;;;9.19;97.53;99854.75;5020648;28;20515;-63
2021/10/21 07:56:28;;;;;;;31.13;5.22;;;;;;;9.26;94.31;99863.47;5019174;28;20030;-63
2021/10/21 07:58:54;;;;;;;27.27;4.78;;;;;;;9.28;94.26;99869.63;5020439;28;20045;-63
2021/10/21 08:01:19;;;;;;;27.25;4.80;;;;;;;9.19;97.10;99881.09;5021210;28;20033;-63
2021/10/21 08:03:44;;;;;;;27.00;4.63;;;;;;;9.30;96.71;99891.59;5016618;28;20026;-63
2021/10/21 08:06:10;;;;;;;29.05;4.95;;;;;;;9.60;94.69;99900.22;5020185;28;20461;-63
2021/10/21 08:08:36;;;;;;;30.00;5.40;;;;;;;9.79;96.13;99908.00;5021260;28;20029;-63
2021/10/21 08:11:01;;;;;;;27.20;4.70;;;;;;;9.89;93.75;99912.34;5022446;28;20025;-63
2021/10/21 08:13:29;;;;;;;30.90;4.85;;;;;;;10.00;90.53;99917.50;5013421;28;20504;-63
2021/10/21 08:15:54;;;;;;;28.88;5.20;;;;;;;10.08;89.92;99908.63;5017800;28;20172;-63
2021/10/21 08:18:19;;;;;;;27.38;5.10;;;;;;;10.15;86.73;99922.69;5013617;28;20110;-62
2021/10/21 08:20:45;;;;;;;25.10;4.90;;;;;;;10.19;84.63;99918.22;5024346;28;20405;-63
2021/10/21 08:23:11;;;;;;;30.50;4.72;;;;;;;10.21;84.95;99927.91;5023346;28;20492;-63
2021/10/21 08:25:36;;;;;;;28.05;4.68;;;;;;;10.30;84.63;99919.03;5013551;28;20509;-63
2021/10/21 08:28:02;;;;;;;26.65;4.65;;;;;;;10.46;82.77;99927.72;5013664;28;20057;-63
2021/10/21 08:30:29;;;;;;;25.15;4.60;;;;;;;10.58;80.46;99921.44;5021495;28;20026;-63
2021/10/21 08:32:57;;;;;;;28.23;4.97;;;;;;;10.64;80.57;99947.78;5019169;28;20417;-64
2021/10/21 08:35:24;;;;;;;28.42;5.07;;;;;;;10.62;79.74;99957.50;5023046;28;20048;-65
2021/10/21 08:37:49;;;;;;;27.35;4.50;;;;;;;10.62;79.01;99978.66;5023443;28;20075;-65
2021/10/21 08:40:16;;;;;;;30.05;4.35;;;;;;;10.61;77.12;99942.53;5020831;28;20033;-64
2021/10/21 08:42:44;;;;;;;26.17;4.57;;;;;;;10.61;79.64;99964.53;5021775;28;20021;-64
2021/10/21 08:45:09;;;;;;;30.17;4.90;;;;;;;10.61;77.88;99980.41;5021592;28;20040;-65
2021/10/21 08:47:41;;;;;;;29.10;4.75;;;;;;;10.70;77.73;99963.56;5022395;28;20021;-63
2021/10/21 08:50:07;;;;;;;24.47;4.80;;;;;;;10.78;78.49;99976.72;5022008;28;20033;-63
2021/10/21 08:52:32;;;;;;;27.42;4.78;;;;;;;10.98;78.02;99974.75;5022436;28;20284;-63
2021/10/21 08:54:58;;;;;;;26.90;5.13;;;;;;;11.06;78.28;99977.28;5019091;28;20053;-63
2021/10/21 08:57:25;;;;;;;28.48;4.93;;;;;;;10.96;78.21;99986.22;5019636;28;20017;-63
2021/10/21 08:59:51;;;;;;;28.27;5.35;;;;;;;10.97;80.17;100003.84;5019648;28;20497;-63
2021/10/21 09:02:26;;;;;;;24.85;4.90;;;;;;;10.88;79.75;100012.75;5018977;28;20032;-64
2021/10/21 09:05:08;;;;;;;23.95;4.50;;;;;;;10.24;84.83;100037.94;5022593;28;20029;-68
2021/10/21 09:10:19;;;;;;;24.48;4.80;;;;;;;8.44;100.00;100055.19;5019382;28;20120;-67
2021/10/21 09:12:49;;;;;;;24.23;4.82;;;;;;;8.13;100.00;100063.06;5019037;28;20048;-66
2021/10/21 09:15:17;;;;;;;28.45;5.60;;;;;;;8.05;100.00;100075.31;5026548;28;20026;-68
2021/10/21 09:17:45;;;;;;;28.23;6.57;;;;;;;8.00;100.00;100075.31;5023552;28;20034;-68
2021/10/21 09:20:19;;;;;;;30.30;6.72;;;;;;;8.06;100.00;100092.88;5023459;28;20021;-68
2021/10/21 09:22:56;;;;;;;36.25;7.45;;;;;;;8.16;100.00;100081.50;5011610;28;20026;-67
2021/10/21 09:25:29;;;;;;;31.90;7.50;;;;;;;7.97;100.00;100088.47;5011791;28;20030;-67
2021/10/21 09:27:56;;;;;;;34.53;7.80;;;;;;;7.94;100.00;100088.47;5024132;28;20037;-67
2021/10/21 09:30:32;;;;;;;30.52;8.82;;;;;;;7.95;100.00;100096.34;5021167;28;20018;-67
2021/10/21 09:33:13;;;;;;;34.40;8.80;;;;;;;7.98;100.00;100099.00;5021912;28;20018;-67
2021/10/21 09:35:49;;;;;;;37.63;10.43;;;;;;;7.96;100.00;100102.50;5026511;28;20021;-67
2021/10/21 09:38:18;;;;;;;36.33;9.73;;;;;;;8.01;100.00;100113.94;5016667;28;20025;-67
2021/10/21 09:40:44;;;;;;;38.83;9.82;;;;;;;8.18;100.00;100098.16;5027191;28;20387;-68
2021/10/21 09:43:14;;;;;;;35.10;9.25;;;;;;;8.19;100.00;100107.81;5026493;28;20027;-67
2021/10/21 09:45:41;;;;;;;35.22;9.05;;;;;;;8.17;100.00;100114.84;5016397;28;20109;-68
2021/10/21 09:48:08;;;;;;;33.70;9.52;;;;;;;8.13;100.00;100105.19;5016391;28;20076;-68
2021/10/21 09:50:36;;;;;;;36.55;9.70;;;;;;;8.14;100.00;100114.81;5016317;28;20029;-67
2021/10/21 09:53:28;;;;;;;35.13;8.52;;;;;;;8.19;100.00;100129.75;5016406;28;20362;-68
2021/10/21 09:55:59;;;;;;;35.92;9.32;;;;;;;8.16;100.00;100131.50;5018519;28;20484;-64
2021/10/21 09:58:33;;;;;;;33.65;8.80;;;;;;;8.16;100.00;100139.41;5020120;28;20084;-64
2021/10/21 10:01:12;;;;;;;31.42;8.80;;;;;;;8.19;100.00;100147.31;5019250;28;20029;-65
2021/10/21 10:03:43;;;;;;;34.67;9.85;;;;;;;8.20;100.00;100149.09;5022464;28;20057;-64
2021/10/21 10:06:09;;;;;;;37.08;10.77;;;;;;;8.19;100.00;100157.84;5018382;28;20022;-64
2021/10/21 10:08:35;;;;;;;49.15;12.73;;;;;;;8.30;100.00;100139.44;5022314;28;20037;-63
2021/10/21 10:11:06;;;;;;;37.40;12.90;;;;;;;8.30;100.00;100147.34;5022996;28;20492;-64
2021/10/21 10:13:31;;;;;;;37.53;15.70;;;;;;;8.36;100.00;100155.28;5022591;28;20037;-64
2021/10/21 10:15:56;;;;;;;32.08;12.60;;;;;;;8.41;100.00;100160.53;5024479;28;20037;-64
2021/10/21 10:18:25;;;;;;;32.58;12.93;;;;;;;8.51;100.00;100179.03;5024955;28;20539;-64
2021/10/21 10:21:10;;;;;;;32.53;12.02;;;;;;;8.50;100.00;100174.66;5026771;28;20037;-68
2021/10/21 10:23:47;;;;;;;30.73;10.40;;;;;;;8.43;100.00;100179.84;5021039;28;20037;-68
2021/10/21 10:26:12;;;;;;;31.27;10.20;;;;;;;8.44;100.00;100179.88;5024505;28;20045;-68
2021/10/21 10:28:52;;;;;;;30.33;10.60;;;;;;;8.48;100.00;100192.19;5026511;28;20026;-67
2021/10/21 10:31:38;;;;;;;31.58;9.95;;;;;;;8.37;100.00;100184.25;5023369;28;20026;-66
2021/10/21 10:34:03;;;;;;;29.98;10.00;;;;;;;8.38;100.00;100196.50;5026566;28;21051;-68
2021/10/21 10:36:31;;;;;;;27.30;9.07;;;;;;;8.42;100.00;100196.53;5022109;28;20489;-68
2021/10/21 10:39:02;;;;;;;27.65;8.63;;;;;;;8.40;100.00;100199.16;5023223;28;20040;-68
2021/10/21 10:41:48;;;;;;;23.70;6.80;;;;;;;8.30;100.00;100219.34;5022327;28;20076;-65
2021/10/21 10:44:35;;;;;;;25.13;6.53;;;;;;;8.13;100.00;100218.38;5020256;28;20476;-67
2021/10/21 10:47:06;;;;;;;21.10;5.70;;;;;;;8.07;100.00;100213.06;5019189;28;20026;-64
2021/10/21 10:49:37;;;;;;;21.50;5.28;;;;;;;8.08;100.00;100212.22;5020520;28;20349;-64
2021/10/21 10:52:09;;;;;;;22.67;5.18;;;;;;;8.09;100.00;100220.09;5020944;28;20436;-64
2021/10/21 10:54:43;;;;;;;20.93;5.20;;;;;;;8.18;100.00;100232.44;5019901;28;20030;-65
2021/10/21 10:57:31;;;;;;;21.38;5.63;;;;;;;8.19;100.00;100215.78;5023581;28;20037;-64
2021/10/21 10:59:59;;;;;;;23.02;6.85;;;;;;;8.19;100.00;100210.50;5020759;28;20054;-64
2021/10/21 11:02:25;;;;;;;22.40;7.95;;;;;;;8.22;100.00;100213.16;5021584;28;20053;-65
2021/10/21 11:04:53;;;;;;;25.92;9.85;;;;;;;8.26;100.00;100241.25;5019896;28;20111;-65
2021/10/21 11:07:24;;;;;;;26.60;10.77;;;;;;;8.34;100.00;100257.09;5019399;28;20034;-65
2021/10/21 11:09:51;;;;;;;29.23;11.75;;;;;;;8.47;100.00;100236.97;5022865;28;20113;-65
2021/10/21 11:12:23;;;;;;;29.35;11.70;;;;;;;8.75;100.00;100259.00;5017331;28;20021;-65
2021/10/21 11:14:55;;;;;;;26.48;11.45;;;;;;;8.85;100.00;100249.38;5020380;28;20041;-64
2021/10/21 11:17:41;;;;;;;28.58;11.48;;;;;;;8.91;100.00;100259.91;5015218;28;20026;-64
2021/10/21 11:20:07;;;;;;;27.83;11.25;;;;;;;9.10;100.00;100271.41;5015194;28;20444;-64
2021/10/21 11:22:36;;;;;;;27.15;9.38;;;;;;;9.45;100.00;100281.09;5015522;28;20057;-65
2021/10/21 11:25:05;;;;;;;25.40;7.00;;;;;;;9.62;100.00;100254.66;5021659;28;20026;-65